Архив погоды в Билибино

Метеограмма Билибино
Четверг, 21 Июня
Время местн. Темп Ветер Видим Явления Облачность нижн/средн/верх Атм. давл. Влжн Точка росы ВНГО R Сост. почвы Tg s
Напр Скр Прв ур.ст ур.м изм
12:00 +20.7° Ю 1 4 более 50 км - переменная облачность 735 759 -0.9 36% +5.3° 1 км - - - -
09:00 +16.9° Ю,Ю-З 1 6 более 50 км - ясно 736 761 -0.4 45% +5° более 2.5 км 0 Влажная (без луж) +7° -
06:00 +10.1° С-В 3 7 более 50 км - ясно 736 762 +0.4 58% +2.3° более 2.5 км - - - -
03:00 +8.3° С-В 3 8 более 50 км - незначительная облачность 736 761 +0.5 63% +1.7° более 2.5 км - - - -
00:00 +11.9° С,С-В 4 9 более 50 км - переменная облачность 736 761 +0.8 50% +1.9° 1 км - - - -
Среда, 20 Июня
Время местн. Темп Ветер Видим Явления Облачность нижн/средн/верх Атм. давл. Влжн Точка росы ВНГО R Сост. почвы Tg s
Напр Скр Прв ур.ст ур.м изм
21:00 +16.4° С-В 4 7 более 50 км - переменная облачность 735 759 +0.6 39% +2.5° 1 км 0 - - -
18:00 +18.9° В 4 8 более 50 км - переменная облачность 734 759 0 34% +2.7° 1 км - - - -
15:00 +19.3° С-В 5 - 50 км - переменная облачность 734 759 -0.5 37% +4.3° 1 км - - - -
12:00 +16.6° С-В 2 9 более 50 км - переменная облачность 735 759 -0.5 42% +3.6° более 2.5 км - - - -
09:00 +11° С,С-В 6 10 более 50 км - переменная облачность 735 760 -0.1 54% +2.1° более 2.5 км 0 Влажная (без луж) +5° -
06:00 +7.1° С-В 6 10 более 50 км - переменная облачность 735 761 +0.4 66% +1.1° 1 км - - - -
03:00 +5.7° С-В 6 10 более 50 км - переменная облачность 735 760 +0.1 71% +0.9° 1 км - - - -
00:00 +7.1° С-В 6 11 более 50 км - облачно 735 760 +0.5 66% +1.1° 1 км - - - -
Вторник, 19 Июня
Время местн. Темп Ветер Видим Явления Облачность нижн/средн/верх Атм. давл. Влжн Точка росы ВНГО R Сост. почвы Tg s
Напр Скр Прв ур.ст ур.м изм
21:00 +8.9° С-В 7 11 более 50 км - преимущественно облачно 734 759 +1.5 58% +1.1° более 2.5 км 0 - - -
18:00 +13.8° С-В 6 11 более 50 км - облачно 733 757 +0.8 39% +0.2° более 2.5 км - - - -
15:00 +16.6° С-В 6 11 более 50 км - облачно 732 756 +0.2 33% +0.4° 1 км - - - -
12:00 +16.4° С,С-В 5 7 более 50 км - облачно 732 756 -0.2 31% -0.7° более 2.5 км - - - -
09:00 +13.4° С-В 4 8 более 50 км - облачно 732 757 +0.5 41% +0.6° более 2.5 км 0 Влажная (без луж) +8° -
06:00 +10° С,С-В 5 8 более 50 км - переменная облачность 732 757 +0.5 62% +3° более 2.5 км - - - -
03:00 +8.8° С-В 4 10 более 50 км - переменная облачность 731 756 +0.9 68% +3.2° 1 км - - - -
00:00 +11.6° С,С-В 6 9 более 50 км небо без изменений {гроза, ливневые осадки} переменная облачность 730 755 +0.2 67% +5.6° 1 км - - - -
Понедельник, 18 Июня
Время местн. Темп Ветер Видим Явления Облачность нижн/средн/верх Атм. давл. Влжн Точка росы ВНГО R Сост. почвы Tg s
Напр Скр Прв ур.ст ур.м изм
21:00 +14° З 3 10 10 км гроза в последний час, слабый дождь {ливневые осадки} преимущественно облачно 730 754 +1 76% +9.9° 1 км 0.9 - - -
18:00 +18.9° С-В 5 12 более 50 км - облачно с прояснениями 729 753 +0.5 47% +7.3° 1 км - - - -
15:00 +23.8° З 4 9 более 50 км - переменная облачность 729 752 -0.4 30% +5.1° 1 км - - - -
12:00 +22.8° З 4 8 более 50 км - переменная облачность 729 753 -0.3 29% +4° 1 км - - - -
09:00 +19.4° Ю,Ю-З 1 4 более 50 км - незначительная облачность 729 753 -0.5 46% +7.4° 1.5 км 0 Влажная (без луж) +10° -